createdAt,value
2022-11-30T00:01:19.364Z,9.30
2022-11-30T00:03:46.540Z,9.30
2022-11-30T00:06:16.160Z,9.30
2022-11-30T00:08:43.043Z,9.30
2022-11-30T00:11:12.607Z,9.30
2022-11-30T00:13:39.382Z,9.30
2022-11-30T00:16:06.570Z,9.30
2022-11-30T00:18:33.642Z,9.40
2022-11-30T00:21:02.062Z,9.40
2022-11-30T00:23:36.131Z,9.30
2022-11-30T00:26:05.069Z,9.40
2022-11-30T00:28:33.433Z,9.40
2022-11-30T00:31:02.658Z,9.30
2022-11-30T00:33:34.076Z,9.30
2022-11-30T00:36:10.507Z,9.20
2022-11-30T00:38:37.250Z,9.20
2022-11-30T00:41:04.283Z,9.10
2022-11-30T00:43:31.202Z,9.10
2022-11-30T00:45:58.729Z,9.10
2022-11-30T00:48:25.984Z,9.10
2022-11-30T00:50:52.815Z,9.10
2022-11-30T00:53:20.561Z,9.00
2022-11-30T00:55:48.021Z,9.10
2022-11-30T00:58:14.743Z,9.10
2022-11-30T01:00:41.760Z,9.00
2022-11-30T01:03:08.803Z,9.00
2022-11-30T01:05:36.739Z,9.00
2022-11-30T01:08:05.390Z,9.00
2022-11-30T01:10:34.045Z,9.00
2022-11-30T01:13:01.111Z,9.00
2022-11-30T01:15:27.840Z,9.00
2022-11-30T01:17:54.596Z,9.00
2022-11-30T01:20:21.463Z,9.00
2022-11-30T01:22:48.193Z,9.00
2022-11-30T01:25:15.141Z,9.00
2022-11-30T01:27:41.802Z,9.00
2022-11-30T01:30:09.002Z,9.10
2022-11-30T01:32:35.805Z,9.10
2022-11-30T01:35:02.688Z,9.10
2022-11-30T01:37:30.140Z,9.10
2022-11-30T01:39:57.004Z,9.10
2022-11-30T01:42:23.962Z,9.10
2022-11-30T01:44:50.958Z,9.10
2022-11-30T01:47:20.474Z,9.10
2022-11-30T01:49:56.963Z,9.10
2022-11-30T01:52:32.833Z,9.10
2022-11-30T01:55:12.069Z,9.10
2022-11-30T01:57:43.811Z,9.10
2022-11-30T02:00:11.911Z,9.10
2022-11-30T02:03:10.799Z,9.10
2022-11-30T02:05:39.490Z,9.10
2022-11-30T02:08:07.970Z,9.10
2022-11-30T02:10:42.352Z,9.10
2022-11-30T02:13:53.039Z,9.20
2022-11-30T02:16:47.062Z,9.20
2022-11-30T02:19:13.816Z,9.20
2022-11-30T02:21:58.414Z,9.20
2022-11-30T02:24:46.544Z,9.20
2022-11-30T02:27:47.579Z,9.20
2022-11-30T02:30:18.512Z,9.20
2022-11-30T02:32:54.017Z,9.10
2022-11-30T02:35:26.626Z,9.10
2022-11-30T02:37:58.009Z,9.10
2022-11-30T02:40:25.264Z,9.10
2022-11-30T02:42:55.845Z,9.10
2022-11-30T02:45:33.539Z,9.10
2022-11-30T02:48:08.901Z,9.10
2022-11-30T02:50:44.695Z,9.10
2022-11-30T02:53:13.733Z,9.00
2022-11-30T02:55:40.584Z,9.00
2022-11-30T02:58:09.457Z,9.00
2022-11-30T03:00:36.245Z,9.00
2022-11-30T03:03:05.429Z,9.00
2022-11-30T03:05:32.665Z,8.90
2022-11-30T03:07:59.385Z,8.90
2022-11-30T03:10:26.135Z,8.90
2022-11-30T03:12:52.782Z,8.80
2022-11-30T03:15:19.437Z,8.80
2022-11-30T03:17:46.089Z,8.80
2022-11-30T03:20:12.807Z,8.70
2022-11-30T03:22:39.450Z,8.70
2022-11-30T03:25:06.718Z,8.70
2022-11-30T03:27:33.351Z,8.60
2022-11-30T03:30:00.046Z,8.60
2022-11-30T03:32:26.886Z,8.60
2022-11-30T03:34:53.655Z,8.50
2022-11-30T03:37:20.353Z,8.50
2022-11-30T03:39:47.752Z,8.50
2022-11-30T03:42:14.516Z,8.40
2022-11-30T03:44:41.482Z,8.40
2022-11-30T03:47:08.159Z,8.40
2022-11-30T03:49:34.862Z,8.40
2022-11-30T03:52:01.657Z,8.40
2022-11-30T03:54:28.402Z,8.40
2022-11-30T03:56:55.175Z,8.40
2022-11-30T03:59:21.915Z,8.40
2022-11-30T04:01:48.682Z,8.40
2022-11-30T04:04:15.663Z,8.40
2022-11-30T04:06:42.537Z,8.40
2022-11-30T04:09:10.092Z,8.30
2022-11-30T04:11:36.789Z,8.30
2022-11-30T04:14:03.749Z,8.30
2022-11-30T04:16:30.594Z,8.30
2022-11-30T04:18:57.549Z,8.30
2022-11-30T04:21:24.275Z,8.30
2022-11-30T04:23:50.942Z,8.30
2022-11-30T04:26:18.143Z,8.30
2022-11-30T04:28:45.040Z,8.30
2022-11-30T04:31:12.094Z,8.30
2022-11-30T04:33:39.101Z,8.30
2022-11-30T04:36:07.272Z,8.20
2022-11-30T04:38:36.322Z,8.30
2022-11-30T04:41:08.189Z,8.20
2022-11-30T04:43:34.890Z,8.20
2022-11-30T04:46:01.785Z,8.00
2022-11-30T04:48:28.490Z,8.00
2022-11-30T04:51:01.447Z,8.00
2022-11-30T04:53:28.235Z,7.90
2022-11-30T04:55:54.913Z,7.90
2022-11-30T04:58:21.613Z,7.80
2022-11-30T05:00:48.275Z,7.80
2022-11-30T05:03:14.991Z,7.80
2022-11-30T05:05:41.722Z,7.70
2022-11-30T05:08:09.778Z,7.70
2022-11-30T05:10:36.506Z,7.60
2022-11-30T05:13:03.177Z,7.60
2022-11-30T05:15:29.987Z,7.60
2022-11-30T05:17:59.665Z,7.50
2022-11-30T05:20:27.112Z,7.50
2022-11-30T05:22:53.814Z,7.50
2022-11-30T05:25:20.680Z,7.60
2022-11-30T05:27:47.334Z,7.50
2022-11-30T05:30:14.330Z,7.60
2022-11-30T05:32:41.004Z,7.60
2022-11-30T05:35:08.148Z,7.60
2022-11-30T05:37:34.804Z,7.60
2022-11-30T05:40:01.460Z,7.60
2022-11-30T05:42:28.243Z,7.60
2022-11-30T05:44:54.977Z,7.50
2022-11-30T05:47:21.714Z,7.50
2022-11-30T05:49:48.358Z,7.50
2022-11-30T05:52:15.006Z,7.50
2022-11-30T05:54:41.757Z,7.50
2022-11-30T05:57:08.457Z,7.50
2022-11-30T05:59:35.139Z,7.50
2022-11-30T06:02:01.858Z,7.50
2022-11-30T06:04:28.797Z,7.50
2022-11-30T06:06:55.766Z,7.60
2022-11-30T06:09:22.964Z,7.60
2022-11-30T06:11:49.760Z,7.60
2022-11-30T06:14:16.487Z,7.60
2022-11-30T06:16:43.266Z,7.50
2022-11-30T06:19:10.073Z,7.60
2022-11-30T06:21:36.758Z,7.50
2022-11-30T06:24:03.585Z,7.50
2022-11-30T06:26:30.261Z,7.50
2022-11-30T06:28:56.893Z,7.50
2022-11-30T06:31:23.755Z,7.50
2022-11-30T06:33:50.461Z,7.50
2022-11-30T06:36:22.703Z,7.50
2022-11-30T06:38:49.893Z,7.50
2022-11-30T06:41:16.804Z,7.50
2022-11-30T06:43:43.525Z,7.50
2022-11-30T06:46:10.903Z,7.50
2022-11-30T06:48:37.907Z,7.50
2022-11-30T06:51:09.171Z,7.50
2022-11-30T06:53:36.635Z,7.50
2022-11-30T06:56:10.560Z,7.50
2022-11-30T06:58:38.513Z,7.50
2022-11-30T07:01:10.652Z,7.50
2022-11-30T07:03:37.656Z,7.50
2022-11-30T07:06:12.999Z,7.60
2022-11-30T07:08:40.445Z,7.50
2022-11-30T07:11:08.463Z,7.60
2022-11-30T07:13:35.572Z,7.60
2022-11-30T07:16:07.270Z,7.60
2022-11-30T07:18:34.272Z,7.60
2022-11-30T07:21:01.755Z,7.60
2022-11-30T07:23:54.053Z,7.70
2022-11-30T07:26:23.698Z,7.70
2022-11-30T07:28:54.990Z,7.70
2022-11-30T07:31:30.962Z,7.80
2022-11-30T07:34:02.677Z,7.80
2022-11-30T07:36:31.518Z,7.80
2022-11-30T07:38:58.359Z,7.80
2022-11-30T07:41:25.183Z,7.90
2022-11-30T07:43:51.983Z,7.90
2022-11-30T07:46:19.597Z,8.00
2022-11-30T07:48:46.690Z,8.00
2022-11-30T07:51:19.431Z,8.00
2022-11-30T07:53:46.717Z,8.00
2022-11-30T07:56:19.262Z,8.10
2022-11-30T07:58:46.975Z,8.10
2022-11-30T08:01:16.331Z,8.10
2022-11-30T08:03:43.384Z,8.10
2022-11-30T08:06:13.196Z,8.10
2022-11-30T08:08:42.657Z,8.20
2022-11-30T08:11:12.342Z,8.20
2022-11-30T08:13:39.440Z,8.20
2022-11-30T08:16:09.717Z,8.20
2022-11-30T08:18:36.687Z,8.30
2022-11-30T08:21:05.954Z,8.30
2022-11-30T08:23:38.787Z,8.30
2022-11-30T08:26:17.754Z,8.40
2022-11-30T08:28:46.853Z,8.40
2022-11-30T08:31:17.404Z,8.50
2022-11-30T08:33:44.184Z,8.50
2022-11-30T08:36:13.977Z,8.50
2022-11-30T08:38:42.597Z,8.60
2022-11-30T08:41:11.590Z,8.60
2022-11-30T08:43:38.341Z,8.70
2022-11-30T08:46:27.509Z,8.60
2022-11-30T08:49:12.576Z,8.70
2022-11-30T08:52:08.788Z,8.80
2022-11-30T08:54:27.460Z,8.80
2022-11-30T08:56:56.927Z,8.80
2022-11-30T08:59:23.693Z,8.90
2022-11-30T09:01:50.394Z,8.90
2022-11-30T09:04:19.341Z,9.00
2022-11-30T09:06:46.264Z,9.00
2022-11-30T09:09:13.613Z,9.00
2022-11-30T09:11:40.358Z,9.00
2022-11-30T09:14:09.071Z,9.10
2022-11-30T09:16:36.105Z,9.20
2022-11-30T09:19:02.950Z,9.20
2022-11-30T09:21:30.489Z,9.30
2022-11-30T09:23:57.241Z,9.30
2022-11-30T09:26:25.544Z,9.30
2022-11-30T09:28:54.140Z,9.40
2022-11-30T09:31:23.648Z,9.50
2022-11-30T09:33:51.576Z,9.50
2022-11-30T09:36:20.729Z,9.60
2022-11-30T09:38:48.356Z,9.60
2022-11-30T09:41:46.136Z,9.60
2022-11-30T09:44:38.155Z,9.60
2022-11-30T09:47:20.066Z,9.70
2022-11-30T09:49:50.451Z,9.70
2022-11-30T09:52:28.588Z,9.70
2022-11-30T09:54:56.723Z,9.80
2022-11-30T09:57:33.860Z,9.80
2022-11-30T10:00:04.978Z,9.80
2022-11-30T10:02:37.998Z,9.80
2022-11-30T10:05:14.543Z,9.80
2022-11-30T10:07:41.316Z,9.90
2022-11-30T10:10:35.133Z,9.90
2022-11-30T10:13:13.707Z,10.00
2022-11-30T10:15:46.248Z,10.00
2022-11-30T10:18:44.304Z,10.10
2022-11-30T10:21:28.138Z,10.20
2022-11-30T10:24:26.590Z,10.30
2022-11-30T10:26:56.138Z,10.50
2022-11-30T10:29:39.457Z,10.50
2022-11-30T10:32:13.577Z,10.60
2022-11-30T10:34:42.400Z,10.70
2022-11-30T10:37:22.352Z,10.60
2022-11-30T10:40:00.318Z,10.60
2022-11-30T10:42:30.751Z,10.60
2022-11-30T10:45:05.464Z,10.60
2022-11-30T10:47:39.838Z,10.60
2022-11-30T10:50:07.587Z,10.60
2022-11-30T10:52:53.942Z,10.70
2022-11-30T10:55:27.272Z,10.70
2022-11-30T10:57:59.171Z,10.80
2022-11-30T11:00:25.918Z,10.80
2022-11-30T11:02:56.164Z,10.90
2022-11-30T11:05:33.113Z,11.00
2022-11-30T11:08:17.891Z,11.00
2022-11-30T11:10:51.419Z,11.10
2022-11-30T11:13:34.857Z,11.10
2022-11-30T11:16:03.918Z,11.20
2022-11-30T11:18:51.368Z,11.20
2022-11-30T11:21:20.157Z,11.30
2022-11-30T11:23:55.723Z,11.20
2022-11-30T11:26:28.035Z,11.30
2022-11-30T11:28:57.083Z,11.30
2022-11-30T11:31:37.484Z,11.30
2022-11-30T11:34:05.566Z,11.30
2022-11-30T11:36:34.276Z,11.30
2022-11-30T11:39:03.410Z,11.30
2022-11-30T11:41:37.543Z,11.30
2022-11-30T11:44:10.228Z,11.30
2022-11-30T11:47:05.932Z,11.40
2022-11-30T11:49:36.286Z,11.40
2022-11-30T11:52:14.339Z,11.50
2022-11-30T11:54:54.713Z,11.50
2022-11-30T11:57:27.595Z,11.70
2022-11-30T12:00:05.492Z,11.80
2022-11-30T12:02:37.034Z,11.90
2022-11-30T12:05:17.753Z,12.00
2022-11-30T12:08:06.279Z,12.10
2022-11-30T12:10:59.150Z,12.10
2022-11-30T12:13:55.344Z,12.10
2022-11-30T12:16:31.234Z,12.20
2022-11-30T12:19:22.586Z,12.20
2022-11-30T12:22:12.916Z,12.20
2022-11-30T12:25:06.098Z,12.10
2022-11-30T12:27:53.393Z,12.10
2022-11-30T12:30:47.396Z,12.00
2022-11-30T12:33:50.534Z,12.00
2022-11-30T12:36:48.659Z,12.00
2022-11-30T12:39:29.590Z,12.00
2022-11-30T12:42:07.697Z,12.00
2022-11-30T12:44:54.781Z,11.90
2022-11-30T12:47:27.633Z,11.90
2022-11-30T12:50:06.730Z,11.90
2022-11-30T12:52:54.024Z,11.90
2022-11-30T12:55:32.806Z,11.90
2022-11-30T12:58:31.542Z,11.90
2022-11-30T13:01:15.873Z,11.90
2022-11-30T13:04:01.227Z,11.90
2022-11-30T13:06:46.945Z,11.90
2022-11-30T13:09:23.089Z,11.80
2022-11-30T13:11:55.314Z,11.80
2022-11-30T13:14:24.629Z,11.80
2022-11-30T13:17:00.379Z,11.80
2022-11-30T13:19:55.513Z,11.80
2022-11-30T13:22:42.922Z,11.70
2022-11-30T13:26:07.523Z,11.70
2022-11-30T13:28:43.136Z,11.60
2022-11-30T13:31:37.411Z,11.50
2022-11-30T13:34:04.189Z,11.50
2022-11-30T13:36:41.209Z,11.40
2022-11-30T13:39:21.922Z,11.40
2022-11-30T13:42:02.140Z,11.40
2022-11-30T13:44:40.386Z,11.30
2022-11-30T13:47:28.957Z,11.30
2022-11-30T13:50:18.344Z,11.30
2022-11-30T13:53:17.157Z,11.30
2022-11-30T13:55:49.907Z,11.30
2022-11-30T13:58:19.197Z,11.20
2022-11-30T14:01:25.211Z,11.20
2022-11-30T14:04:19.786Z,11.20
2022-11-30T14:06:55.519Z,11.20
2022-11-30T14:09:40.167Z,11.20
2022-11-30T14:12:36.701Z,11.20
2022-11-30T14:15:34.070Z,11.20
2022-11-30T14:18:07.568Z,11.20
2022-11-30T14:20:49.627Z,11.10
2022-11-30T14:24:01.034Z,11.10
2022-11-30T14:26:37.179Z,11.10
2022-11-30T14:29:06.933Z,11.10
2022-11-30T14:31:56.885Z,11.10
2022-11-30T14:34:29.224Z,11.10
2022-11-30T14:37:02.485Z,11.00
2022-11-30T14:39:42.153Z,11.00
2022-11-30T14:42:32.023Z,11.00
2022-11-30T14:44:58.885Z,11.00
2022-11-30T14:47:27.903Z,10.90
2022-11-30T14:49:59.545Z,10.90
2022-11-30T14:52:44.466Z,10.90
2022-11-30T14:55:36.186Z,10.90
2022-11-30T14:58:44.857Z,10.90
2022-11-30T15:01:21.950Z,10.80
2022-11-30T15:03:51.372Z,10.80
2022-11-30T15:06:20.037Z,10.80
2022-11-30T15:08:53.366Z,10.80
2022-11-30T15:11:21.230Z,10.80
2022-11-30T15:13:50.878Z,10.80
2022-11-30T15:16:36.073Z,10.80
2022-11-30T15:19:36.080Z,10.80
2022-11-30T15:22:02.783Z,10.70
2022-11-30T15:24:29.928Z,10.80
2022-11-30T15:27:07.003Z,10.70
2022-11-30T15:29:40.772Z,10.70
2022-11-30T15:32:16.293Z,10.70
2022-11-30T15:34:54.875Z,10.60
2022-11-30T15:37:40.986Z,10.70
2022-11-30T15:40:10.821Z,10.70
2022-11-30T15:42:40.417Z,10.60
2022-11-30T15:45:22.328Z,10.60
2022-11-30T15:47:49.481Z,10.60
2022-11-30T15:50:21.930Z,10.60
2022-11-30T15:52:50.975Z,10.60
2022-11-30T15:55:49.789Z,10.60
2022-11-30T15:58:36.946Z,10.60
2022-11-30T16:01:05.423Z,10.50
2022-11-30T16:03:59.358Z,10.50
2022-11-30T16:06:44.806Z,10.50
2022-11-30T16:09:24.225Z,10.50
2022-11-30T16:11:57.067Z,10.50
2022-11-30T16:14:23.858Z,10.50
2022-11-30T16:16:53.099Z,10.40
2022-11-30T16:19:20.339Z,10.40
2022-11-30T16:21:48.874Z,10.40
2022-11-30T16:24:15.830Z,10.40
2022-11-30T16:26:51.750Z,10.40
2022-11-30T16:29:19.316Z,10.40
2022-11-30T16:31:49.170Z,10.50
2022-11-30T16:34:16.153Z,10.40
2022-11-30T16:36:42.942Z,10.40
2022-11-30T16:39:12.240Z,10.40
2022-11-30T16:41:39.141Z,10.40
2022-11-30T16:44:12.264Z,10.40
2022-11-30T16:46:39.125Z,10.40
2022-11-30T16:49:05.981Z,10.40
2022-11-30T16:51:34.758Z,10.30
2022-11-30T16:54:01.603Z,10.30
2022-11-30T16:56:30.777Z,10.20
2022-11-30T16:58:57.465Z,10.10
2022-11-30T17:01:39.911Z,10.10
2022-11-30T17:04:23.949Z,10.00
2022-11-30T17:06:52.887Z,9.90
2022-11-30T17:09:22.768Z,9.80
2022-11-30T17:11:50.874Z,9.70
2022-11-30T17:14:18.271Z,9.70
2022-11-30T17:16:45.104Z,9.60
2022-11-30T17:19:14.058Z,9.60
2022-11-30T17:21:43.022Z,9.50
2022-11-30T17:24:09.808Z,9.50
2022-11-30T17:26:36.674Z,9.40
2022-11-30T17:29:03.869Z,9.40
2022-11-30T17:31:30.703Z,9.30
2022-11-30T17:33:57.428Z,9.20
2022-11-30T17:36:26.761Z,9.10
2022-11-30T17:38:53.564Z,9.10
2022-11-30T17:41:22.906Z,9.00
2022-11-30T17:43:49.856Z,9.00
2022-11-30T17:46:21.090Z,9.00
2022-11-30T17:48:50.646Z,8.90
2022-11-30T17:51:20.095Z,8.90
2022-11-30T17:53:49.161Z,8.80
2022-11-30T17:56:17.343Z,8.80
2022-11-30T17:58:45.338Z,8.70
2022-11-30T18:01:17.134Z,8.70
2022-11-30T18:03:44.789Z,8.60
2022-11-30T18:06:12.221Z,8.60
2022-11-30T18:08:40.132Z,8.50
2022-11-30T18:11:11.495Z,8.50
2022-11-30T18:13:39.267Z,8.50
2022-11-30T18:16:12.205Z,8.40
2022-11-30T18:18:44.221Z,8.30
2022-11-30T18:21:15.668Z,8.30
2022-11-30T18:23:42.393Z,8.30
2022-11-30T18:26:13.121Z,8.20
2022-11-30T18:28:39.861Z,8.20
2022-11-30T18:31:06.814Z,8.10
2022-11-30T18:33:36.849Z,8.10
2022-11-30T18:36:07.441Z,8.00
2022-11-30T18:38:37.945Z,8.00
2022-11-30T18:41:06.431Z,8.00
2022-11-30T18:43:34.170Z,7.90
2022-11-30T18:46:05.661Z,7.90
2022-11-30T18:48:32.642Z,7.90
2022-11-30T18:50:59.659Z,7.80
2022-11-30T18:53:26.388Z,7.80
2022-11-30T18:55:53.361Z,7.70
2022-11-30T18:58:20.051Z,7.70
2022-11-30T19:00:46.786Z,7.70
2022-11-30T19:03:13.457Z,7.60
2022-11-30T19:05:40.838Z,7.60
2022-11-30T19:08:11.124Z,7.60
2022-11-30T19:10:39.324Z,7.60
2022-11-30T19:13:06.828Z,7.60
2022-11-30T19:15:39.741Z,7.50
2022-11-30T19:18:07.620Z,7.50
2022-11-30T19:20:41.567Z,7.50
2022-11-30T19:23:08.549Z,7.50
2022-11-30T19:25:35.414Z,7.50
2022-11-30T19:28:02.106Z,7.40
2022-11-30T19:30:28.902Z,7.40
2022-11-30T19:32:55.671Z,7.40
2022-11-30T19:35:25.032Z,7.40
2022-11-30T19:37:52.624Z,7.30
2022-11-30T19:40:19.419Z,7.30
2022-11-30T19:42:48.668Z,7.30
2022-11-30T19:45:15.577Z,7.20
2022-11-30T19:47:42.342Z,7.20
2022-11-30T19:50:09.208Z,7.20
2022-11-30T19:52:35.913Z,7.10
2022-11-30T19:55:04.793Z,7.10
2022-11-30T19:57:33.678Z,7.10
2022-11-30T20:00:02.579Z,7.00
2022-11-30T20:02:29.312Z,7.00
2022-11-30T20:04:56.170Z,7.00
2022-11-30T20:07:22.942Z,6.90
2022-11-30T20:09:52.102Z,7.00
2022-11-30T20:12:18.806Z,6.90
2022-11-30T20:14:45.747Z,6.90
2022-11-30T20:17:13.068Z,6.90
2022-11-30T20:19:39.773Z,6.80
2022-11-30T20:22:09.382Z,6.80
2022-11-30T20:24:36.796Z,6.80
2022-11-30T20:27:06.437Z,6.80
2022-11-30T20:29:33.208Z,6.80
2022-11-30T20:31:59.880Z,6.80
2022-11-30T20:34:32.700Z,6.70
2022-11-30T20:37:00.991Z,6.70
2022-11-30T20:39:27.688Z,6.70
2022-11-30T20:41:54.402Z,6.70
2022-11-30T20:44:23.372Z,6.70
2022-11-30T20:46:50.277Z,6.60
2022-11-30T20:49:18.927Z,6.70
2022-11-30T20:51:46.836Z,6.60
2022-11-30T20:54:14.907Z,6.60
2022-11-30T20:56:44.418Z,6.60
2022-11-30T20:59:16.440Z,6.60
2022-11-30T21:01:47.962Z,6.60
2022-11-30T21:04:14.808Z,6.50
2022-11-30T21:06:45.301Z,6.50
2022-11-30T21:09:13.985Z,6.50
2022-11-30T21:11:40.808Z,6.50
2022-11-30T21:14:07.922Z,6.40
2022-11-30T21:16:35.084Z,6.40
2022-11-30T21:19:02.241Z,6.50
2022-11-30T21:21:31.627Z,6.40
2022-11-30T21:24:01.330Z,6.40
2022-11-30T21:26:39.563Z,6.40
2022-11-30T21:29:17.030Z,6.40
2022-11-30T21:31:44.008Z,6.40
2022-11-30T21:34:10.844Z,6.40
2022-11-30T21:36:37.680Z,6.40
2022-11-30T21:39:07.162Z,6.40
2022-11-30T21:41:38.807Z,6.40
2022-11-30T21:44:07.355Z,6.40
2022-11-30T21:46:34.373Z,6.40
2022-11-30T21:49:01.382Z,6.40
2022-11-30T21:51:32.056Z,6.40
2022-11-30T21:54:05.433Z,6.40
2022-11-30T21:56:35.553Z,6.50
2022-11-30T21:59:07.713Z,6.50
2022-11-30T22:01:42.446Z,6.60
2022-11-30T22:04:11.291Z,6.60
2022-11-30T22:06:40.116Z,6.70
2022-11-30T22:09:11.410Z,6.80
2022-11-30T22:11:40.614Z,6.80
2022-11-30T22:14:13.400Z,6.90
2022-11-30T22:16:40.279Z,6.90
2022-11-30T22:19:07.760Z,6.90
2022-11-30T22:21:44.078Z,7.00
2022-11-30T22:24:14.485Z,7.00
2022-11-30T22:26:43.639Z,7.10
2022-11-30T22:29:15.387Z,7.10
2022-11-30T22:31:43.161Z,7.10
2022-11-30T22:34:12.615Z,7.10
2022-11-30T22:36:41.541Z,7.10
2022-11-30T22:39:16.872Z,7.00
2022-11-30T22:41:45.474Z,7.00
2022-11-30T22:44:14.042Z,7.10
2022-11-30T22:46:41.363Z,7.00
2022-11-30T22:49:13.584Z,7.00
2022-11-30T22:51:44.465Z,7.00
2022-11-30T22:54:11.941Z,6.90
2022-11-30T22:56:41.559Z,6.90
2022-11-30T22:59:11.497Z,6.90
2022-11-30T23:01:44.278Z,6.90
2022-11-30T23:04:14.699Z,6.80
2022-11-30T23:06:42.702Z,6.80
2022-11-30T23:09:13.667Z,6.80
2022-11-30T23:11:40.674Z,6.70
2022-11-30T23:14:09.601Z,6.70
2022-11-30T23:16:37.071Z,6.70
2022-11-30T23:19:04.839Z,6.60
2022-11-30T23:21:40.306Z,6.60
2022-11-30T23:24:09.497Z,6.60
2022-11-30T23:26:40.675Z,6.50
2022-11-30T23:29:11.417Z,6.50
2022-11-30T23:31:40.028Z,6.50
2022-11-30T23:34:09.835Z,6.50
2022-11-30T23:36:37.042Z,6.50
2022-11-30T23:39:07.153Z,6.50
2022-11-30T23:41:36.463Z,6.40
2022-11-30T23:44:03.715Z,6.40
2022-11-30T23:46:31.052Z,6.30
2022-11-30T23:48:57.821Z,6.30
2022-11-30T23:51:27.178Z,6.30
2022-11-30T23:53:54.227Z,6.30
2022-11-30T23:56:23.303Z,6.30
2022-11-30T23:58:52.766Z,6.20
